Time;durP1;ratioP1;P1;durP2;ratioP2;P2;SDS_P1;SDS_P2;PMS_P1;PMS_P2;Temp;Humidity;BMP_temperature;BMP_pressure;BME280_temperature;BME280_humidity;BME280_pressure;Samples;Min_cycle;Max_cycle;Signal;HPM_P1;HPM_P2
2021/08/10 00:01:25;;;;;;;0.50;0.50;;;16.20;84.80;;;;;;4862614;29;20041;-81
2021/08/10 00:03:52;;;;;;;0.95;0.68;;;16.20;84.80;;;;;;4847221;29;20085;-81
2021/08/10 00:06:19;;;;;;;0.90;0.80;;;16.20;84.80;;;;;;4862491;29;20092;-82
2021/08/10 00:08:44;;;;;;;0.82;0.70;;;16.10;84.80;;;;;;4862608;29;20485;-82
2021/08/10 00:11:10;;;;;;;0.82;0.57;;;16.20;84.90;;;;;;4877214;29;20032;-81
2021/08/10 00:13:36;;;;;;;0.50;0.50;;;16.10;84.90;;;;;;4847086;29;20090;-82
2021/08/10 00:16:02;;;;;;;0.85;0.50;;;16.10;85.00;;;;;;4878979;29;20045;-82
2021/08/10 00:18:28;;;;;;;0.75;0.52;;;16.10;85.00;;;;;;4862574;29;20037;-82
2021/08/10 00:20:53;;;;;;;0.95;0.77;;;16.10;85.00;;;;;;4846384;29;20052;-82
2021/08/10 00:23:19;;;;;;;0.85;0.70;;;16.10;85.00;;;;;;4861944;29;20412;-82
2021/08/10 00:25:47;;;;;;;1.45;0.68;;;16.10;85.10;;;;;;4878022;29;20048;-82
2021/08/10 00:28:13;;;;;;;0.70;0.70;;;16.00;85.00;;;;;;4862098;29;20515;-82
2021/08/10 00:30:41;;;;;;;1.00;0.70;;;16.00;85.10;;;;;;4878551;29;20045;-82
2021/08/10 00:33:08;;;;;;;0.98;0.65;;;16.10;85.10;;;;;;4878477;29;20065;-82
2021/08/10 00:35:34;;;;;;;0.80;0.70;;;16.10;85.10;;;;;;4861714;29;20049;-82
2021/08/10 00:38:00;;;;;;;1.25;0.70;;;16.00;85.10;;;;;;4862303;29;20540;-82
2021/08/10 00:40:26;;;;;;;0.73;0.73;;;16.00;85.10;;;;;;4861684;29;20116;-82
2021/08/10 00:42:51;;;;;;;1.15;0.60;;;16.00;85.20;;;;;;4843004;29;20050;-82
2021/08/10 00:45:17;;;;;;;1.00;0.60;;;15.90;85.10;;;;;;4858645;29;20038;-82
2021/08/10 00:47:43;;;;;;;0.80;0.52;;;16.00;85.30;;;;;;4858375;29;20128;-81
2021/08/10 00:50:11;;;;;;;0.77;0.70;;;16.00;85.30;;;;;;4858365;29;20442;-83
2021/08/10 00:52:37;;;;;;;0.80;0.70;;;16.00;85.40;;;;;;4843536;29;20029;-82
2021/08/10 00:55:04;;;;;;;1.05;0.82;;;15.90;85.30;;;;;;4828055;29;20079;-82
2021/08/10 00:57:30;;;;;;;1.05;0.70;;;16.00;85.40;;;;;;4859879;29;20549;-83
2021/08/10 00:59:56;;;;;;;0.73;0.50;;;15.90;85.30;;;;;;4828313;29;20389;-82
2021/08/10 01:02:22;;;;;;;0.80;0.70;;;15.90;85.40;;;;;;4860111;29;20030;-82
2021/08/10 01:04:48;;;;;;;1.92;0.70;;;15.90;85.40;;;;;;4859807;29;20056;-82
2021/08/10 01:07:20;;;;;;;0.90;0.80;;;15.80;85.30;;;;;;4842939;29;20390;-82
2021/08/10 01:10:07;;;;;;;0.88;0.70;;;15.90;85.40;;;;;;4843782;29;20107;-82
2021/08/10 01:12:49;;;;;;;1.40;0.90;;;15.90;85.50;;;;;;4858264;29;20044;-83
2021/08/10 01:15:18;;;;;;;0.82;0.82;;;15.90;85.40;;;;;;4858030;29;20054;-83
2021/08/10 01:17:53;;;;;;;0.85;0.82;;;15.90;85.50;;;;;;4828038;29;20393;-83
2021/08/10 01:20:58;;;;;;;0.60;0.60;;;15.80;85.40;;;;;;4857682;29;20049;-83
2021/08/10 01:23:27;;;;;;;1.05;0.63;;;15.90;85.60;;;;;;4851276;29;20033;-83
2021/08/10 01:26:30;;;;;;;0.90;0.80;;;15.80;85.50;;;;;;4878612;29;20097;-83
2021/08/10 01:29:15;;;;;;;0.68;0.68;;;15.80;85.60;;;;;;4876828;29;20377;-83
2021/08/10 01:31:42;;;;;;;0.90;0.70;;;15.80;85.60;;;;;;4861097;29;20033;-83
2021/08/10 01:34:23;;;;;;;0.93;0.70;;;15.80;85.60;;;;;;4861324;29;20093;-83
2021/08/10 01:36:50;;;;;;;;;;;15.90;85.70;;;;;;4878315;29;20113;-82
2021/08/10 01:39:18;;;;;;;0.85;0.68;;;15.80;85.60;;;;;;4877840;29;19915;-83
2021/08/10 01:41:46;;;;;;;0.80;0.68;;;15.80;85.60;;;;;;4861704;29;20133;-82
2021/08/10 01:44:15;;;;;;;0.60;0.52;;;15.80;85.60;;;;;;4845969;29;20499;-83
2021/08/10 01:46:41;;;;;;;1.88;0.70;;;15.80;85.60;;;;;;4861322;29;20119;-83
2021/08/10 01:49:09;;;;;;;0.70;0.70;;;15.80;86.30;;;;;;4843802;29;20108;-83
2021/08/10 01:51:36;;;;;;;0.55;0.52;;;15.80;85.70;;;;;;4877634;29;20033;-83
2021/08/10 01:54:04;;;;;;;0.75;0.70;;;15.80;85.70;;;;;;4877362;29;20144;-83
2021/08/10 01:56:30;;;;;;;0.98;0.82;;;15.80;85.70;;;;;;4861391;29;20393;-83
2021/08/10 01:58:59;;;;;;;1.15;0.85;;;15.80;85.70;;;;;;4845460;29;20037;-83
2021/08/10 02:01:28;;;;;;;1.60;0.88;;;15.80;85.70;;;;;;4860295;29;20029;-83
2021/08/10 02:03:55;;;;;;;1.40;0.80;;;15.90;85.70;;;;;;4861753;29;20061;-83
2021/08/10 02:06:22;;;;;;;0.70;0.70;;;15.90;85.70;;;;;;4860748;29;20373;-83
2021/08/10 02:08:51;;;;;;;1.83;0.90;;;15.80;85.60;;;;;;4858062;29;20037;-83
2021/08/10 02:11:17;;;;;;;0.63;0.60;;;15.90;85.60;;;;;;4857821;29;20060;-83
2021/08/10 02:13:45;;;;;;;1.58;0.90;;;15.90;85.60;;;;;;4846347;29;20037;-83
2021/08/10 02:16:12;;;;;;;0.60;0.60;;;15.90;85.70;;;;;;4859266;29;20053;-83
2021/08/10 02:18:38;;;;;;;0.70;0.70;;;15.90;85.70;;;;;;4845996;29;20123;-83
2021/08/10 02:21:10;;;;;;;1.05;0.60;;;15.90;85.70;;;;;;4861352;29;20041;-83
2021/08/10 02:23:36;;;;;;;1.17;0.80;;;15.90;85.80;;;;;;4845612;29;20038;-83
2021/08/10 02:26:04;;;;;;;0.50;0.50;;;15.80;85.80;;;;;;4877682;29;20041;-83
2021/08/10 02:28:31;;;;;;;1.00;0.63;;;15.80;85.90;;;;;;4858424;29;20492;-82
2021/08/10 02:31:00;;;;;;;0.70;0.70;;;15.80;85.90;;;;;;4845834;29;20393;-82
2021/08/10 02:33:27;;;;;;;0.50;0.50;;;15.80;85.90;;;;;;4876939;29;20045;-83
2021/08/10 02:35:58;;;;;;;0.50;0.50;;;15.80;86.00;;;;;;4845616;29;20135;-82
2021/08/10 02:38:25;;;;;;;0.70;0.70;;;15.80;86.10;;;;;;4861230;29;20033;-83
2021/08/10 02:40:52;;;;;;;0.68;0.65;;;15.70;86.70;;;;;;4862577;29;20498;-81
2021/08/10 02:43:21;;;;;;;1.33;0.85;;;15.80;86.10;;;;;;4863508;29;20037;-83
2021/08/10 02:45:47;;;;;;;0.70;0.65;;;15.80;86.20;;;;;;4848750;29;20067;-82
2021/08/10 02:48:13;;;;;;;1.35;0.80;;;15.80;86.20;;;;;;4864554;29;20049;-82
2021/08/10 02:50:38;;;;;;;1.38;0.98;;;15.80;86.20;;;;;;4867946;29;20029;-82
2021/08/10 02:53:05;;;;;;;1.00;0.90;;;15.70;86.20;;;;;;4852829;29;20098;-81
2021/08/10 02:55:34;;;;;;;1.55;0.98;;;15.80;86.20;;;;;;4853190;29;20048;-82
2021/08/10 02:58:20;;;;;;;1.35;0.80;;;15.80;86.20;;;;;;4867352;29;20041;-81
2021/08/10 03:00:54;;;;;;;1.08;0.70;;;15.80;86.30;;;;;;4867393;29;20365;-81
2021/08/10 03:03:24;;;;;;;0.73;0.63;;;15.70;86.20;;;;;;4866474;29;20037;-82
2021/08/10 03:05:54;;;;;;;1.15;0.80;;;15.90;86.30;;;;;;4868930;29;20045;-82
2021/08/10 03:08:25;;;;;;;0.85;0.73;;;15.70;86.30;;;;;;4854332;29;20449;-81
2021/08/10 03:10:53;;;;;;;1.05;0.70;;;15.70;86.30;;;;;;4863103;29;20074;-82
2021/08/10 03:13:21;;;;;;;0.65;0.63;;;15.70;86.30;;;;;;4885100;29;20073;-81
2021/08/10 03:15:48;;;;;;;0.68;0.60;;;15.70;86.40;;;;;;4865877;29;20056;-82
2021/08/10 03:18:15;;;;;;;1.45;0.80;;;15.70;86.40;;;;;;4867576;29;20033;-81
2021/08/10 03:20:43;;;;;;;0.80;0.65;;;15.70;86.50;;;;;;4881546;29;20436;-82
2021/08/10 03:23:14;;;;;;;1.02;0.80;;;15.70;86.50;;;;;;4864131;29;20100;-82
2021/08/10 03:25:42;;;;;;;0.98;0.70;;;15.70;86.60;;;;;;4864225;29;20117;-81
2021/08/10 03:28:08;;;;;;;3.40;0.70;;;15.60;86.50;;;;;;4849395;29;20037;-81
2021/08/10 03:30:34;;;;;;;1.00;0.70;;;15.60;86.50;;;;;;4864947;29;20104;-82
2021/08/10 03:33:01;;;;;;;1.05;0.80;;;15.60;86.60;;;;;;4848366;29;20393;-82
2021/08/10 03:35:28;;;;;;;0.95;0.75;;;15.60;86.60;;;;;;4882582;29;20685;-81
2021/08/10 03:37:55;;;;;;;1.10;0.82;;;15.50;86.60;;;;;;4866401;29;20039;-82
2021/08/10 03:40:22;;;;;;;1.48;0.95;;;15.50;86.60;;;;;;4852133;29;20040;-82
2021/08/10 03:42:50;;;;;;;1.10;0.85;;;15.60;86.80;;;;;;4881137;29;20420;-82
2021/08/10 03:45:16;;;;;;;1.10;0.80;;;15.50;87.30;;;;;;4867575;29;20105;-82
2021/08/10 03:47:42;;;;;;;1.20;0.70;;;15.50;86.70;;;;;;4866984;29;20041;-82
2021/08/10 03:50:09;;;;;;;0.88;0.73;;;15.60;86.80;;;;;;4885167;29;20045;-82
2021/08/10 03:52:35;;;;;;;0.88;0.60;;;15.50;86.80;;;;;;4868041;29;20048;-82
2021/08/10 03:55:02;;;;;;;1.17;0.70;;;15.50;86.80;;;;;;4885764;29;20053;-83
2021/08/10 03:57:31;;;;;;;2.08;0.70;;;15.50;87.10;;;;;;4869374;29;20124;-82
2021/08/10 03:59:59;;;;;;;1.67;1.00;;;15.40;86.80;;;;;;4853825;29;20049;-82
2021/08/10 04:02:25;;;;;;;0.68;0.68;;;15.50;86.90;;;;;;4886597;29;20048;-81
2021/08/10 04:04:54;;;;;;;0.68;0.68;;;15.40;86.90;;;;;;4853623;29;20041;-83
2021/08/10 04:07:20;;;;;;;0.85;0.70;;;15.40;86.90;;;;;;4870181;29;20041;-83
2021/08/10 04:09:47;;;;;;;1.00;0.70;;;15.40;86.90;;;;;;4853183;29;20100;-83
2021/08/10 04:12:13;;;;;;;1.35;0.88;;;15.40;87.00;;;;;;4867764;29;20052;-83
2021/08/10 04:14:40;;;;;;;0.90;0.80;;;15.40;87.00;;;;;;4884436;29;20563;-82
2021/08/10 04:17:07;;;;;;;0.50;0.50;;;15.40;87.10;;;;;;4869054;29;20484;-83
2021/08/10 04:19:36;;;;;;;1.02;0.65;;;15.30;87.10;;;;;;4866380;29;20042;-82
2021/08/10 04:22:03;;;;;;;0.88;0.70;;;15.40;87.80;;;;;;4868400;29;20142;-82
2021/08/10 04:24:29;;;;;;;1.15;0.80;;;15.30;87.10;;;;;;4867450;29;20045;-82
2021/08/10 04:26:55;;;;;;;1.73;0.80;;;15.30;87.20;;;;;;4850704;29;20049;-83
2021/08/10 04:29:21;;;;;;;0.70;0.65;;;15.30;87.20;;;;;;4835805;29;20507;-82
2021/08/10 04:31:48;;;;;;;1.02;0.80;;;15.30;87.20;;;;;;4866562;29;20041;-82
2021/08/10 04:34:14;;;;;;;1.08;0.75;;;15.30;87.20;;;;;;4866435;29;20041;-82
2021/08/10 04:36:40;;;;;;;2.10;0.80;;;15.40;87.20;;;;;;4834484;29;20033;-82
2021/08/10 04:39:06;;;;;;;0.88;0.70;;;15.30;87.20;;;;;;4879102;29;20037;-83
2021/08/10 04:41:32;;;;;;;0.70;0.50;;;15.30;87.20;;;;;;4852931;29;20039;-82
2021/08/10 04:43:58;;;;;;;0.63;0.60;;;15.30;87.30;;;;;;4849780;29;20097;-82
2021/08/10 04:46:27;;;;;;;0.80;0.77;;;15.30;87.30;;;;;;4881747;29;20049;-82
2021/08/10 04:48:53;;;;;;;0.98;0.70;;;15.30;87.30;;;;;;4866612;29;20400;-83
2021/08/10 04:51:19;;;;;;;0.60;0.60;;;15.30;87.30;;;;;;4882067;29;20116;-83
2021/08/10 04:53:45;;;;;;;0.80;0.70;;;15.20;87.30;;;;;;4886202;29;20044;-82
2021/08/10 04:56:11;;;;;;;0.52;0.47;;;15.20;87.30;;;;;;4852507;29;20104;-82
2021/08/10 04:58:37;;;;;;;0.63;0.63;;;15.20;87.40;;;;;;4852568;29;20061;-82
2021/08/10 05:01:04;;;;;;;1.10;0.73;;;15.10;87.30;;;;;;4866674;29;20085;-81
2021/08/10 05:03:30;;;;;;;1.30;0.70;;;15.10;87.30;;;;;;4865223;29;20438;-82
2021/08/10 05:05:57;;;;;;;2.35;0.80;;;15.20;87.40;;;;;;4849872;29;20463;-82
2021/08/10 05:08:23;;;;;;;2.38;0.73;;;15.20;87.60;;;;;;4863218;29;20125;-83
2021/08/10 05:10:49;;;;;;;0.68;0.68;;;15.20;87.40;;;;;;4846989;29;20065;-83
2021/08/10 05:13:15;;;;;;;0.70;0.40;;;15.20;87.40;;;;;;4861332;29;20510;-82
2021/08/10 05:15:41;;;;;;;1.08;0.80;;;15.20;87.40;;;;;;4861956;29;20116;-81
2021/08/10 05:18:07;;;;;;;0.63;0.50;;;15.20;87.30;;;;;;4850790;29;20088;-82
2021/08/10 05:20:33;;;;;;;0.70;0.60;;;15.20;87.40;;;;;;4848017;29;20488;-82
2021/08/10 05:22:59;;;;;;;0.70;0.70;;;15.20;87.30;;;;;;4863675;29;20065;-83
2021/08/10 05:25:25;;;;;;;0.60;0.60;;;15.20;87.30;;;;;;4846869;29;20105;-82
2021/08/10 05:27:51;;;;;;;0.82;0.50;;;15.30;87.40;;;;;;4843910;29;20517;-81
2021/08/10 05:30:17;;;;;;;0.50;0.50;;;15.30;87.30;;;;;;4843312;29;20066;-81
2021/08/10 05:32:43;;;;;;;1.35;0.80;;;15.30;87.30;;;;;;4858359;29;20029;-81
2021/08/10 05:35:09;;;;;;;1.55;0.70;;;15.30;87.20;;;;;;4847156;29;20403;-81
2021/08/10 05:37:35;;;;;;;0.40;0.40;;;15.30;87.20;;;;;;4846768;29;20052;-81
2021/08/10 05:40:01;;;;;;;0.93;0.52;;;15.30;87.20;;;;;;4879101;29;20124;-81
2021/08/10 05:42:27;;;;;;;0.38;0.38;;;15.40;87.20;;;;;;4861576;29;20065;-81
2021/08/10 05:44:53;;;;;;;1.05;0.73;;;15.30;87.20;;;;;;4846379;29;20061;-81
2021/08/10 05:47:19;;;;;;;0.60;0.43;;;15.40;87.20;;;;;;4861556;29;20052;-82
2021/08/10 05:49:45;;;;;;;0.60;0.50;;;15.40;87.20;;;;;;4878303;29;20974;-82
2021/08/10 05:52:11;;;;;;;0.73;0.63;;;15.40;87.10;;;;;;4861647;29;20045;-81
2021/08/10 05:54:37;;;;;;;0.45;0.40;;;15.40;87.10;;;;;;4877980;29;20093;-82
2021/08/10 05:57:03;;;;;;;0.73;0.60;;;15.50;87.10;;;;;;4861567;29;20097;-81
2021/08/10 05:59:29;;;;;;;1.17;0.68;;;15.50;87.00;;;;;;4845763;29;20092;-81
2021/08/10 06:01:57;;;;;;;0.60;0.50;;;15.50;86.90;;;;;;4846460;29;20029;-81
2021/08/10 06:04:23;;;;;;;0.68;0.60;;;15.50;86.90;;;;;;4841333;29;20034;-81
2021/08/10 06:06:49;;;;;;;0.73;0.73;;;15.60;87.50;;;;;;4857921;29;20445;-82
2021/08/10 06:09:14;;;;;;;1.30;0.70;;;15.60;86.80;;;;;;4842235;29;20421;-82
2021/08/10 06:11:40;;;;;;;1.13;0.70;;;15.70;86.80;;;;;;4857876;29;20124;-82
2021/08/10 06:14:06;;;;;;;1.13;0.75;;;15.70;86.70;;;;;;4845793;29;20388;-81
2021/08/10 06:16:33;;;;;;;1.00;0.90;;;15.70;86.60;;;;;;4845334;29;20205;-81
2021/08/10 06:18:59;;;;;;;1.13;0.75;;;15.80;86.60;;;;;;4860495;29;20424;-81
2021/08/10 06:21:25;;;;;;;1.15;0.75;;;15.80;86.50;;;;;;4860960;29;20038;-81
2021/08/10 06:23:51;;;;;;;1.02;0.80;;;15.80;86.40;;;;;;4863984;29;20555;-79
2021/08/10 06:26:17;;;;;;;0.98;0.70;;;15.80;86.40;;;;;;4881923;29;20065;-79
2021/08/10 06:28:42;;;;;;;2.15;0.82;;;15.90;86.40;;;;;;4868257;29;20063;-79
2021/08/10 06:31:10;;;;;;;1.77;1.00;;;16.00;86.40;;;;;;4874847;29;20040;-79
2021/08/10 06:33:36;;;;;;;0.98;0.80;;;16.10;86.20;;;;;;4847192;29;20037;-79
2021/08/10 06:36:02;;;;;;;1.70;0.60;;;16.30;86.00;;;;;;4879733;29;20053;-79
2021/08/10 06:38:27;;;;;;;1.58;0.80;;;16.30;85.70;;;;;;4881055;29;20044;-80
2021/08/10 06:40:53;;;;;;;1.58;0.82;;;16.50;85.50;;;;;;4881863;29;20102;-79
2021/08/10 06:43:19;;;;;;;1.63;0.82;;;16.40;85.40;;;;;;4852888;29;20433;-79
2021/08/10 06:45:44;;;;;;;1.42;1.05;;;16.50;85.40;;;;;;4853250;29;20044;-78
2021/08/10 06:48:10;;;;;;;1.40;0.90;;;16.50;85.40;;;;;;4856403;29;20037;-78
2021/08/10 06:50:36;;;;;;;1.58;1.05;;;16.50;85.50;;;;;;4871665;29;20047;-79
2021/08/10 06:53:02;;;;;;;1.40;0.85;;;16.50;85.50;;;;;;4856117;29;20029;-78
2021/08/10 06:55:27;;;;;;;1.60;1.13;;;16.60;85.50;;;;;;4864925;29;20050;-82
2021/08/10 06:58:11;;;;;;;1.10;0.98;;;16.50;85.40;;;;;;4862927;29;20518;-82
2021/08/10 07:00:39;;;;;;;1.85;0.98;;;16.60;85.40;;;;;;4806444;29;20494;-81
2021/08/10 07:03:16;;;;;;;2.05;1.08;;;16.60;85.40;;;;;;4807623;29;20133;-83
2021/08/10 07:05:42;;;;;;;1.13;1.00;;;16.60;85.40;;;;;;4773155;30;20070;-83
2021/08/10 07:08:08;;;;;;;1.30;1.00;;;16.60;85.50;;;;;;4753892;30;20112;-82
2021/08/10 07:11:03;;;;;;;1.98;0.80;;;16.70;85.50;;;;;;4722106;30;20067;-83
2021/08/10 07:13:29;;;;;;;1.35;1.05;;;16.70;85.60;;;;;;4730072;30;20598;-82
2021/08/10 07:15:55;;;;;;;1.52;0.90;;;16.80;85.40;;;;;;4728317;30;20052;-83
2021/08/10 07:18:31;;;;;;;1.70;1.10;;;16.90;85.30;;;;;;4751325;30;20577;-82
2021/08/10 07:20:57;;;;;;;2.45;1.00;;;17.10;85.10;;;;;;4737479;30;20424;-81
2021/08/10 07:23:26;;;;;;;1.58;1.17;;;17.10;84.90;;;;;;4736606;30;20051;-82
2021/08/10 07:25:51;;;;;;;2.08;1.20;;;17.20;84.70;;;;;;4706819;30;20098;-81
2021/08/10 07:28:20;;;;;;;2.08;1.13;;;17.20;84.80;;;;;;4727277;30;20099;-81
2021/08/10 07:30:48;;;;;;;1.83;1.02;;;17.20;84.60;;;;;;4762185;30;20134;-82
2021/08/10 07:33:15;;;;;;;1.88;1.20;;;17.30;84.50;;;;;;4787628;30;20039;-81
2021/08/10 07:35:40;;;;;;;2.30;1.10;;;17.40;84.60;;;;;;4785830;29;20579;-81
2021/08/10 07:38:06;;;;;;;1.38;0.98;;;17.40;84.50;;;;;;4777366;29;20105;-80
2021/08/10 07:40:33;;;;;;;0.98;0.90;;;17.50;84.50;;;;;;4777894;29;20042;-81
2021/08/10 07:50:36;;;;;;;1.20;0.90;;;17.50;84.50;;;;;;4746325;30;20056;-82
2021/08/10 07:56:52;;;;;;;1.77;1.15;;;17.80;84.10;;;;;;4721646;30;20488;-82
2021/08/10 07:59:28;;;;;;;1.50;1.13;;;17.70;83.80;;;;;;4704116;30;20072;-82
2021/08/10 08:01:55;;;;;;;2.22;1.30;;;17.70;84.00;;;;;;4716504;30;20055;-80
2021/08/10 08:04:21;;;;;;;2.58;1.02;;;17.60;84.20;;;;;;4718281;30;20489;-80
2021/08/10 08:06:50;;;;;;;1.10;0.90;;;17.60;84.50;;;;;;4725349;30;20079;-81
2021/08/10 08:09:16;;;;;;;1.05;0.70;;;17.90;84.60;;;;;;4715534;30;20076;-82
2021/08/10 08:11:42;;;;;;;1.95;0.93;;;18.00;84.00;;;;;;4725569;30;20032;-81
2021/08/10 08:14:16;;;;;;;1.10;0.80;;;18.00;83.80;;;;;;4708531;30;20057;-82
2021/08/10 08:16:42;;;;;;;1.35;1.05;;;18.10;83.80;;;;;;4705038;30;20571;-81
2021/08/10 08:19:08;;;;;;;1.30;0.95;;;18.10;83.70;;;;;;4719728;30;20048;-81
2021/08/10 08:21:33;;;;;;;2.72;1.02;;;18.10;83.70;;;;;;4728582;30;20198;-82
2021/08/10 08:24:04;;;;;;;1.83;1.13;;;18.00;83.90;;;;;;4726736;30;20048;-84
2021/08/10 08:26:33;;;;;;;2.17;1.15;;;18.00;84.20;;;;;;4767668;30;20055;-84
2021/08/10 08:28:59;;;;;;;1.20;0.90;;;18.00;84.10;;;;;;4784271;30;20055;-80
2021/08/10 08:31:26;;;;;;;2.17;1.30;;;18.10;84.10;;;;;;4798730;30;20083;-82
2021/08/10 08:33:52;;;;;;;1.20;0.90;;;17.90;84.00;;;;;;4840666;29;20049;-82
2021/08/10 08:36:18;;;;;;;1.55;0.98;;;18.00;84.40;;;;;;4854998;29;20056;-80
2021/08/10 08:38:44;;;;;;;1.60;0.90;;;18.20;84.40;;;;;;4840226;29;20053;-77
2021/08/10 08:41:13;;;;;;;1.48;0.90;;;18.30;83.80;;;;;;4861356;29;20049;-79
2021/08/10 08:43:39;;;;;;;1.77;1.05;;;18.50;83.70;;;;;;4904919;29;20029;-79
2021/08/10 08:46:06;;;;;;;1.60;1.20;;;18.60;83.10;;;;;;4908633;29;20055;-78
2021/08/10 08:48:32;;;;;;;1.95;1.15;;;18.70;82.90;;;;;;4907136;29;20060;-79
2021/08/10 08:51:00;;;;;;;2.30;1.27;;;18.70;82.90;;;;;;4903291;29;20841;-78
2021/08/10 08:53:26;;;;;;;1.30;1.10;;;18.90;82.60;;;;;;4912793;29;20414;-80
2021/08/10 08:55:52;;;;;;;1.23;1.00;;;19.00;82.10;;;;;;4909565;29;20064;-77
2021/08/10 08:58:18;;;;;;;1.58;0.80;;;19.00;82.10;;;;;;4899188;29;20053;-77
2021/08/10 09:00:44;;;;;;;1.52;1.00;;;19.00;82.00;;;;;;4868759;29;20044;-78
2021/08/10 09:03:10;;;;;;;2.15;1.00;;;19.00;81.80;;;;;;4869790;29;20136;-77
2021/08/10 09:05:39;;;;;;;1.85;1.00;;;19.00;82.10;;;;;;4881977;29;20032;-78
2021/08/10 09:08:27;;;;;;;1.08;0.90;;;18.90;82.40;;;;;;4906303;29;20048;-78
2021/08/10 09:10:55;;;;;;;1.67;1.00;;;18.80;82.60;;;;;;4904290;29;20044;-79
2021/08/10 09:13:21;;;;;;;1.65;1.08;;;18.60;82.70;;;;;;4902631;29;20488;-78
2021/08/10 09:15:48;;;;;;;1.67;1.08;;;18.60;82.80;;;;;;4869301;29;20143;-78
2021/08/10 09:18:17;;;;;;;1.52;1.02;;;18.50;83.00;;;;;;4866093;29;20068;-78
2021/08/10 09:21:03;;;;;;;1.10;1.00;;;18.50;83.20;;;;;;4879856;29;20045;-77
2021/08/10 09:23:38;;;;;;;2.00;1.10;;;18.50;83.20;;;;;;4886156;29;20045;-78
2021/08/10 09:26:04;;;;;;;0.90;0.90;;;18.60;83.20;;;;;;4872689;29;20444;-78
2021/08/10 09:28:33;;;;;;;1.15;0.85;;;18.60;83.00;;;;;;4901680;29;20055;-80
2021/08/10 09:31:27;;;;;;;2.03;1.10;;;18.60;82.90;;;;;;4881571;29;20400;-78
2021/08/10 09:33:55;;;;;;;1.80;1.00;;;18.50;82.90;;;;;;4903920;29;20588;-80
2021/08/10 09:36:22;;;;;;;1.27;1.10;;;18.50;82.90;;;;;;4866492;29;20048;-78
2021/08/10 09:38:48;;;;;;;2.00;1.23;;;18.60;82.80;;;;;;4881229;29;20572;-78
2021/08/10 09:41:15;;;;;;;1.60;1.20;;;18.80;82.40;;;;;;4899705;29;20040;-79
2021/08/10 09:43:41;;;;;;;1.08;0.93;;;18.80;82.10;;;;;;4886040;29;20025;-78
2021/08/10 09:46:15;;;;;;;1.35;1.10;;;18.90;82.10;;;;;;4893103;29;20041;-79
2021/08/10 09:48:53;;;;;;;1.25;1.02;;;18.80;82.00;;;;;;4906847;29;20044;-79
2021/08/10 09:51:23;;;;;;;1.38;1.00;;;18.90;82.10;;;;;;4890511;29;20045;-80
2021/08/10 09:53:59;;;;;;;1.42;1.00;;;18.90;82.10;;;;;;4888641;29;20045;-79
2021/08/10 09:56:49;;;;;;;1.80;1.13;;;19.00;82.20;;;;;;4909072;29;20546;-80
2021/08/10 09:59:17;;;;;;;0.80;0.80;;;19.10;81.80;;;;;;4900588;29;20052;-78
2021/08/10 10:01:44;;;;;;;1.55;0.93;;;19.10;81.60;;;;;;4901627;29;20033;-78
2021/08/10 10:04:14;;;;;;;1.55;0.88;;;19.30;81.30;;;;;;4920503;29;20099;-79
2021/08/10 10:06:41;;;;;;;1.45;0.85;;;19.40;81.80;;;;;;4911701;29;20043;-79
2021/08/10 10:09:08;;;;;;;0.85;0.82;;;19.40;81.30;;;;;;4854010;29;20056;-80
2021/08/10 10:11:38;;;;;;;1.75;0.88;;;19.40;80.90;;;;;;4868644;29;20040;-80
2021/08/10 10:15:15;;;;;;;1.30;0.80;;;19.30;81.00;;;;;;4854954;29;20044;-80
2021/08/10 10:18:31;;;;;;;0.80;0.60;;;19.20;81.20;;;;;;4883672;29;20049;-82
2021/08/10 10:20:58;;;;;;;2.17;1.00;;;19.40;81.40;;;;;;4806861;29;20066;-81
2021/08/10 10:23:27;;;;;;;1.38;1.00;;;19.50;81.00;;;;;;4792451;29;20465;-82
2021/08/10 10:25:54;;;;;;;0.70;0.63;;;19.70;80.40;;;;;;4808860;29;20262;-81
2021/08/10 10:28:20;;;;;;;1.10;0.80;;;20.00;79.90;;;;;;4794424;29;20035;-82
2021/08/10 10:30:49;;;;;;;1.45;0.93;;;20.10;79.50;;;;;;4809011;29;20058;-81
2021/08/10 10:33:15;;;;;;;1.55;1.00;;;20.00;79.20;;;;;;4814895;29;20475;-80
2021/08/10 10:35:43;;;;;;;1.17;1.00;;;19.90;79.50;;;;;;4809378;29;20062;-80
2021/08/10 10:38:09;;;;;;;1.20;0.85;;;19.90;79.80;;;;;;4809031;29;20149;-80
2021/08/10 10:40:36;;;;;;;1.20;0.80;;;19.70;79.90;;;;;;4807486;29;20042;-80
2021/08/10 10:43:11;;;;;;;1.23;0.70;;;19.80;80.20;;;;;;4807340;29;20118;-82
2021/08/10 10:49:29;;;;;;;1.05;0.90;;;19.80;80.50;;;;;;4812017;29;20046;-80
2021/08/10 10:52:11;;;;;;;1.10;0.93;;;20.00;79.90;;;;;;4817113;29;20557;-80
2021/08/10 10:54:43;;;;;;;2.17;1.10;;;20.20;79.50;;;;;;4801539;30;20051;-79
2021/08/10 10:57:35;;;;;;;1.35;1.00;;;20.40;79.30;;;;;;4797394;29;20134;-81
2021/08/10 11:00:21;;;;;;;1.15;1.05;;;20.50;78.80;;;;;;4828305;29;20054;-79
2021/08/10 11:03:09;;;;;;;1.75;1.10;;;20.60;78.40;;;;;;4842143;29;20113;-79
2021/08/10 11:05:35;;;;;;;1.55;1.10;;;20.60;78.30;;;;;;4831570;29;20055;-81
2021/08/10 11:08:03;;;;;;;1.08;0.82;;;20.60;78.30;;;;;;4826589;29;20046;-80
2021/08/10 11:10:41;;;;;;;1.00;0.90;;;20.60;78.20;;;;;;4824063;29;20067;-83
2021/08/10 11:13:35;;;;;;;1.88;1.20;;;20.60;78.30;;;;;;4823648;29;20061;-80
2021/08/10 11:16:01;;;;;;;1.17;1.00;;;20.60;78.30;;;;;;4822638;29;20062;-80
2021/08/10 11:18:27;;;;;;;1.10;1.00;;;20.50;78.40;;;;;;4794952;29;20039;-78
2021/08/10 11:21:15;;;;;;;1.10;0.93;;;20.70;78.20;;;;;;4835946;29;20111;-81
2021/08/10 11:23:41;;;;;;;1.73;0.95;;;20.90;77.70;;;;;;4815479;29;20536;-79
2021/08/10 11:26:35;;;;;;;1.52;1.20;;;21.10;77.20;;;;;;4853836;29;20053;-80
2021/08/10 11:29:00;;;;;;;1.90;1.35;;;21.20;76.40;;;;;;4887486;29;20069;-81
2021/08/10 11:31:44;;;;;;;1.13;1.02;;;21.20;76.30;;;;;;4886689;29;20049;-79
2021/08/10 11:34:38;;;;;;;2.08;1.30;;;21.20;76.30;;;;;;4884134;29;20044;-79
2021/08/10 11:37:22;;;;;;;1.33;1.10;;;21.10;76.40;;;;;;4879720;29;20400;-79
2021/08/10 11:40:04;;;;;;;1.95;1.08;;;21.00;76.70;;;;;;4844713;29;20033;-79
2021/08/10 11:42:30;;;;;;;1.60;1.20;;;21.00;76.90;;;;;;4846199;29;20030;-80
2021/08/10 11:44:57;;;;;;;1.58;1.05;;;21.00;77.00;;;;;;4864441;29;20040;-80
2021/08/10 11:47:23;;;;;;;1.77;1.08;;;21.00;77.10;;;;;;4862506;29;20044;-81
2021/08/10 11:49:55;;;;;;;1.15;0.90;;;21.00;77.00;;;;;;4859366;29;20053;-81
2021/08/10 11:52:22;;;;;;;0.95;0.90;;;21.20;76.80;;;;;;4849450;29;20038;-82
2021/08/10 11:55:03;;;;;;;2.00;0.82;;;21.30;76.50;;;;;;4844498;29;20060;-81
2021/08/10 11:57:29;;;;;;;1.15;0.80;;;21.60;76.00;;;;;;4864558;29;20132;-81
2021/08/10 12:00:15;;;;;;;1.15;1.00;;;21.80;75.40;;;;;;4864336;29;20083;-80
2021/08/10 12:02:44;;;;;;;1.23;0.90;;;21.70;75.10;;;;;;4861986;29;20052;-79
2021/08/10 12:05:10;;;;;;;1.33;1.08;;;21.60;75.40;;;;;;4847966;29;20037;-80
2021/08/10 12:07:35;;;;;;;2.35;1.10;;;21.60;75.60;;;;;;4863218;29;20049;-81
2021/08/10 12:10:03;;;;;;;1.35;1.05;;;21.70;75.50;;;;;;4862226;29;20120;-81
2021/08/10 12:12:33;;;;;;;1.60;1.13;;;21.80;75.30;;;;;;4846784;29;20476;-81
2021/08/10 12:14:59;;;;;;;1.67;1.27;;;21.90;74.80;;;;;;4830658;29;20473;-83
2021/08/10 12:17:25;;;;;;;1.73;1.00;;;21.80;74.60;;;;;;4851422;29;20044;-82
2021/08/10 12:19:50;;;;;;;1.58;1.30;;;21.70;75.00;;;;;;4866382;29;20048;-81
2021/08/10 12:22:21;;;;;;;2.35;1.15;;;21.70;75.00;;;;;;4866546;29;20461;-81
2021/08/10 12:24:48;;;;;;;1.67;0.90;;;21.70;75.10;;;;;;4876291;29;20036;-81
2021/08/10 12:27:17;;;;;;;1.98;1.27;;;21.80;75.10;;;;;;4846409;29;20041;-79
2021/08/10 12:29:44;;;;;;;1.67;1.00;;;21.90;74.90;;;;;;4846179;29;20443;-81
2021/08/10 12:32:20;;;;;;;0.75;0.75;;;22.00;75.20;;;;;;4863135;29;20128;-80
2021/08/10 12:34:46;;;;;;;2.55;1.20;;;22.10;74.50;;;;;;4867740;29;20037;-81
2021/08/10 12:37:12;;;;;;;1.42;1.00;;;22.10;74.20;;;;;;4886697;29;20109;-79
2021/08/10 12:39:43;;;;;;;1.02;0.82;;;22.10;74.20;;;;;;4885591;29;20041;-80
2021/08/10 12:42:17;;;;;;;1.02;0.93;;;22.10;74.10;;;;;;4845226;29;20070;-81
2021/08/10 12:44:43;;;;;;;2.35;1.00;;;22.20;74.20;;;;;;4862051;29;20093;-83
2021/08/10 12:47:13;;;;;;;1.77;1.10;;;22.20;74.10;;;;;;4845129;29;20037;-82
2021/08/10 12:49:43;;;;;;;0.93;0.90;;;22.30;74.00;;;;;;4823521;29;20034;-84
2021/08/10 12:52:17;;;;;;;2.60;1.25;;;22.30;73.90;;;;;;4793668;29;20382;-81
2021/08/10 12:55:00;;;;;;;1.67;1.23;;;22.40;73.80;;;;;;4844411;29;20041;-80
2021/08/10 12:57:29;;;;;;;1.30;1.10;;;22.50;73.50;;;;;;4840353;29;20050;-84
2021/08/10 12:59:57;;;;;;;1.20;1.00;;;22.50;73.50;;;;;;4809375;29;20117;-83
2021/08/10 13:02:36;;;;;;;1.48;0.95;;;22.60;73.40;;;;;;4825091;29;20038;-81
2021/08/10 13:05:03;;;;;;;1.42;1.02;;;22.60;73.30;;;;;;4842379;29;20041;-81
2021/08/10 13:07:29;;;;;;;1.35;1.00;;;22.50;73.40;;;;;;4845479;29;20061;-81
2021/08/10 13:09:58;;;;;;;1.48;1.00;;;22.60;73.30;;;;;;4826461;29;20038;-82
2021/08/10 13:12:26;;;;;;;0.80;0.77;;;22.60;73.30;;;;;;4806823;29;20045;-81
2021/08/10 13:15:12;;;;;;;1.55;0.90;;;22.40;73.30;;;;;;4837021;29;20493;-80